sensor_id;sensor_type;location;lat;lon;timestamp;P1;durP1;ratioP1;P2;durP2;ratioP2
35114;SDS011;21292;52.416;13.046;2023-12-22T00:01:01;11.13;;;2.22;;
35114;SDS011;21292;52.416;13.046;2023-12-22T00:03:30;7.45;;;1.90;;
35114;SDS011;21292;52.416;13.046;2023-12-22T00:05:58;6.15;;;1.95;;
35114;SDS011;21292;52.416;13.046;2023-12-22T00:08:27;14.15;;;2.28;;
35114;SDS011;21292;52.416;13.046;2023-12-22T00:10:57;14.38;;;2.38;;
35114;SDS011;21292;52.416;13.046;2023-12-22T00:13:29;15.18;;;3.13;;
35114;SDS011;21292;52.416;13.046;2023-12-22T00:16:02;9.68;;;3.20;;
35114;SDS011;21292;52.416;13.046;2023-12-22T00:18:32;17.85;;;3.67;;
35114;SDS011;21292;52.416;13.046;2023-12-22T00:21:01;12.68;;;2.72;;
35114;SDS011;21292;52.416;13.046;2023-12-22T00:23:29;10.55;;;2.55;;
35114;SDS011;21292;52.416;13.046;2023-12-22T00:26:03;12.55;;;2.25;;
35114;SDS011;21292;52.416;13.046;2023-12-22T00:28:32;6.55;;;1.48;;
35114;SDS011;21292;52.416;13.046;2023-12-22T00:31:01;13.13;;;1.88;;
35114;SDS011;21292;52.416;13.046;2023-12-22T00:33:29;6.70;;;1.30;;
35114;SDS011;21292;52.416;13.046;2023-12-22T00:35:58;4.03;;;1.73;;
35114;SDS011;21292;52.416;13.046;2023-12-22T00:38:27;4.22;;;1.38;;
35114;SDS011;21292;52.416;13.046;2023-12-22T00:40:56;2.95;;;1.67;;
35114;SDS011;21292;52.416;13.046;2023-12-22T00:43:24;7.47;;;2.15;;
35114;SDS011;21292;52.416;13.046;2023-12-22T00:45:54;8.00;;;1.83;;
35114;SDS011;21292;52.416;13.046;2023-12-22T00:48:25;8.00;;;1.85;;
35114;SDS011;21292;52.416;13.046;2023-12-22T00:50:53;9.30;;;1.90;;
35114;SDS011;21292;52.416;13.046;2023-12-22T00:53:25;11.00;;;2.20;;
35114;SDS011;21292;52.416;13.046;2023-12-22T00:55:53;9.93;;;2.03;;
35114;SDS011;21292;52.416;13.046;2023-12-22T00:58:22;12.80;;;2.20;;
35114;SDS011;21292;52.416;13.046;2023-12-22T01:00:50;14.13;;;2.10;;
35114;SDS011;21292;52.416;13.046;2023-12-22T01:03:20;16.17;;;2.78;;
35114;SDS011;21292;52.416;13.046;2023-12-22T01:05:49;9.68;;;1.88;;
35114;SDS011;21292;52.416;13.046;2023-12-22T01:08:18;9.95;;;2.25;;
35114;SDS011;21292;52.416;13.046;2023-12-22T01:10:47;9.45;;;2.28;;
35114;SDS011;21292;52.416;13.046;2023-12-22T01:13:16;23.67;;;3.50;;
35114;SDS011;21292;52.416;13.046;2023-12-22T01:15:44;8.45;;;2.40;;
35114;SDS011;21292;52.416;13.046;2023-12-22T01:18:13;6.97;;;2.70;;
35114;SDS011;21292;52.416;13.046;2023-12-22T01:20:44;9.95;;;2.15;;
35114;SDS011;21292;52.416;13.046;2023-12-22T01:23:13;11.10;;;2.47;;
35114;SDS011;21292;52.416;13.046;2023-12-22T01:25:42;12.18;;;2.33;;
35114;SDS011;21292;52.416;13.046;2023-12-22T01:28:10;15.05;;;3.17;;
35114;SDS011;21292;52.416;13.046;2023-12-22T01:30:39;17.10;;;3.05;;
35114;SDS011;21292;52.416;13.046;2023-12-22T01:33:08;19.67;;;3.65;;
35114;SDS011;21292;52.416;13.046;2023-12-22T01:35:37;14.50;;;3.13;;
35114;SDS011;21292;52.416;13.046;2023-12-22T01:38:15;13.60;;;3.13;;
35114;SDS011;21292;52.416;13.046;2023-12-22T01:40:43;17.73;;;3.70;;
35114;SDS011;21292;52.416;13.046;2023-12-22T01:43:11;12.45;;;3.50;;
35114;SDS011;21292;52.416;13.046;2023-12-22T01:45:41;12.90;;;2.30;;
35114;SDS011;21292;52.416;13.046;2023-12-22T01:48:14;16.33;;;2.75;;
35114;SDS011;21292;52.416;13.046;2023-12-22T01:50:42;11.68;;;2.60;;
35114;SDS011;21292;52.416;13.046;2023-12-22T01:53:12;20.48;;;3.47;;
35114;SDS011;21292;52.416;13.046;2023-12-22T01:55:41;11.50;;;2.55;;
35114;SDS011;21292;52.416;13.046;2023-12-22T01:58:11;12.68;;;3.08;;
35114;SDS011;21292;52.416;13.046;2023-12-22T02:00:40;11.50;;;2.92;;
35114;SDS011;21292;52.416;13.046;2023-12-22T02:03:08;15.77;;;3.13;;
35114;SDS011;21292;52.416;13.046;2023-12-22T02:05:37;10.10;;;2.35;;
35114;SDS011;21292;52.416;13.046;2023-12-22T02:08:05;13.35;;;2.40;;
35114;SDS011;21292;52.416;13.046;2023-12-22T02:10:35;16.25;;;2.28;;
35114;SDS011;21292;52.416;13.046;2023-12-22T02:13:07;15.82;;;2.83;;
35114;SDS011;21292;52.416;13.046;2023-12-22T02:15:41;7.05;;;2.45;;
35114;SDS011;21292;52.416;13.046;2023-12-22T02:18:12;8.40;;;2.30;;
35114;SDS011;21292;52.416;13.046;2023-12-22T02:20:44;17.08;;;2.17;;
35114;SDS011;21292;52.416;13.046;2023-12-22T02:23:13;12.38;;;2.42;;
35114;SDS011;21292;52.416;13.046;2023-12-22T02:25:42;22.10;;;3.05;;
35114;SDS011;21292;52.416;13.046;2023-12-22T02:28:10;12.52;;;2.05;;
35114;SDS011;21292;52.416;13.046;2023-12-22T02:30:43;8.98;;;1.95;;
35114;SDS011;21292;52.416;13.046;2023-12-22T02:33:17;4.85;;;2.25;;
35114;SDS011;21292;52.416;13.046;2023-12-22T02:35:47;12.13;;;2.08;;
35114;SDS011;21292;52.416;13.046;2023-12-22T02:38:19;13.73;;;2.55;;
35114;SDS011;21292;52.416;13.046;2023-12-22T02:40:48;13.43;;;2.10;;
35114;SDS011;21292;52.416;13.046;2023-12-22T02:43:17;10.23;;;2.22;;
35114;SDS011;21292;52.416;13.046;2023-12-22T02:45:45;12.23;;;2.85;;
35114;SDS011;21292;52.416;13.046;2023-12-22T02:48:19;7.47;;;1.60;;
35114;SDS011;21292;52.416;13.046;2023-12-22T02:50:50;10.90;;;1.73;;
35114;SDS011;21292;52.416;13.046;2023-12-22T02:53:21;7.45;;;1.45;;
35114;SDS011;21292;52.416;13.046;2023-12-22T02:55:50;6.15;;;1.20;;
35114;SDS011;21292;52.416;13.046;2023-12-22T02:58:18;6.07;;;1.20;;
35114;SDS011;21292;52.416;13.046;2023-12-22T03:00:47;4.22;;;1.45;;
35114;SDS011;21292;52.416;13.046;2023-12-22T03:03:16;14.10;;;1.80;;
35114;SDS011;21292;52.416;13.046;2023-12-22T03:05:44;7.43;;;1.40;;
35114;SDS011;21292;52.416;13.046;2023-12-22T03:08:12;7.47;;;1.63;;
35114;SDS011;21292;52.416;13.046;2023-12-22T03:10:42;11.00;;;2.53;;
35114;SDS011;21292;52.416;13.046;2023-12-22T03:13:10;7.93;;;1.73;;
35114;SDS011;21292;52.416;13.046;2023-12-22T03:15:39;7.13;;;1.45;;
35114;SDS011;21292;52.416;13.046;2023-12-22T03:18:07;10.75;;;1.80;;
35114;SDS011;21292;52.416;13.046;2023-12-22T03:20:36;10.77;;;2.60;;
35114;SDS011;21292;52.416;13.046;2023-12-22T03:23:07;11.00;;;2.28;;
35114;SDS011;21292;52.416;13.046;2023-12-22T03:25:36;10.07;;;2.33;;
35114;SDS011;21292;52.416;13.046;2023-12-22T03:28:06;9.30;;;2.00;;
35114;SDS011;21292;52.416;13.046;2023-12-22T03:30:36;11.30;;;1.70;;
35114;SDS011;21292;52.416;13.046;2023-12-22T03:33:07;9.80;;;2.10;;
35114;SDS011;21292;52.416;13.046;2023-12-22T03:35:36;13.18;;;2.15;;
35114;SDS011;21292;52.416;13.046;2023-12-22T03:38:04;6.95;;;1.60;;
35114;SDS011;21292;52.416;13.046;2023-12-22T03:40:33;7.13;;;1.90;;
35114;SDS011;21292;52.416;13.046;2023-12-22T03:43:05;8.00;;;1.42;;
35114;SDS011;21292;52.416;13.046;2023-12-22T03:45:34;2.70;;;1.23;;
35114;SDS011;21292;52.416;13.046;2023-12-22T03:48:03;10.73;;;2.20;;
35114;SDS011;21292;52.416;13.046;2023-12-22T03:50:32;6.15;;;1.20;;
35114;SDS011;21292;52.416;13.046;2023-12-22T03:53:01;14.98;;;1.38;;
35114;SDS011;21292;52.416;13.046;2023-12-22T03:55:30;10.20;;;1.40;;
35114;SDS011;21292;52.416;13.046;2023-12-22T03:57:59;7.68;;;1.45;;
35114;SDS011;21292;52.416;13.046;2023-12-22T04:00:29;6.53;;;1.15;;
35114;SDS011;21292;52.416;13.046;2023-12-22T04:02:58;2.88;;;1.10;;
35114;SDS011;21292;52.416;13.046;2023-12-22T04:05:26;7.28;;;1.38;;
35114;SDS011;21292;52.416;13.046;2023-12-22T04:07:55;4.30;;;0.80;;
35114;SDS011;21292;52.416;13.046;2023-12-22T04:10:23;13.73;;;1.58;;
35114;SDS011;21292;52.416;13.046;2023-12-22T04:12:52;5.63;;;1.15;;
35114;SDS011;21292;52.416;13.046;2023-12-22T04:15:20;3.15;;;1.10;;
35114;SDS011;21292;52.416;13.046;2023-12-22T04:17:50;6.80;;;1.25;;
35114;SDS011;21292;52.416;13.046;2023-12-22T04:20:19;5.50;;;1.55;;
35114;SDS011;21292;52.416;13.046;2023-12-22T04:22:48;3.58;;;1.25;;
35114;SDS011;21292;52.416;13.046;2023-12-22T04:25:17;6.15;;;1.30;;
35114;SDS011;21292;52.416;13.046;2023-12-22T04:27:45;3.95;;;1.48;;
35114;SDS011;21292;52.416;13.046;2023-12-22T04:30:15;11.30;;;1.45;;
35114;SDS011;21292;52.416;13.046;2023-12-22T04:32:43;10.18;;;1.40;;
35114;SDS011;21292;52.416;13.046;2023-12-22T04:35:17;8.85;;;1.40;;
35114;SDS011;21292;52.416;13.046;2023-12-22T04:37:46;3.97;;;1.40;;
35114;SDS011;21292;52.416;13.046;2023-12-22T04:40:16;11.55;;;1.92;;
35114;SDS011;21292;52.416;13.046;2023-12-22T04:42:45;7.03;;;1.63;;
35114;SDS011;21292;52.416;13.046;2023-12-22T04:45:15;5.80;;;1.25;;
35114;SDS011;21292;52.416;13.046;2023-12-22T04:47:44;9.05;;;1.13;;
35114;SDS011;21292;52.416;13.046;2023-12-22T04:50:16;2.30;;;1.02;;
35114;SDS011;21292;52.416;13.046;2023-12-22T04:52:44;4.75;;;1.02;;
35114;SDS011;21292;52.416;13.046;2023-12-22T04:55:13;4.18;;;0.90;;
35114;SDS011;21292;52.416;13.046;2023-12-22T04:57:42;3.10;;;0.85;;
35114;SDS011;21292;52.416;13.046;2023-12-22T05:00:13;1.40;;;0.60;;
35114;SDS011;21292;52.416;13.046;2023-12-22T05:02:42;1.67;;;0.93;;
35114;SDS011;21292;52.416;13.046;2023-12-22T05:05:11;6.00;;;1.27;;
35114;SDS011;21292;52.416;13.046;2023-12-22T05:07:42;3.10;;;1.52;;
35114;SDS011;21292;52.416;13.046;2023-12-22T05:10:12;6.03;;;0.93;;
35114;SDS011;21292;52.416;13.046;2023-12-22T05:12:40;4.05;;;1.30;;
35114;SDS011;21292;52.416;13.046;2023-12-22T05:15:09;3.25;;;1.10;;
35114;SDS011;21292;52.416;13.046;2023-12-22T05:17:38;11.93;;;1.27;;
35114;SDS011;21292;52.416;13.046;2023-12-22T05:20:07;1.58;;;0.98;;
35114;SDS011;21292;52.416;13.046;2023-12-22T05:22:38;5.45;;;1.10;;
35114;SDS011;21292;52.416;13.046;2023-12-22T05:25:09;8.25;;;1.83;;
35114;SDS011;21292;52.416;13.046;2023-12-22T05:27:38;7.15;;;1.50;;
35114;SDS011;21292;52.416;13.046;2023-12-22T05:30:10;11.27;;;1.40;;
35114;SDS011;21292;52.416;13.046;2023-12-22T05:32:41;12.45;;;1.70;;
35114;SDS011;21292;52.416;13.046;2023-12-22T05:35:12;6.63;;;2.25;;
35114;SDS011;21292;52.416;13.046;2023-12-22T05:37:41;8.10;;;1.92;;
35114;SDS011;21292;52.416;13.046;2023-12-22T05:40:12;11.00;;;2.00;;
35114;SDS011;21292;52.416;13.046;2023-12-22T05:42:40;8.73;;;1.80;;
35114;SDS011;21292;52.416;13.046;2023-12-22T05:45:09;7.78;;;1.63;;
35114;SDS011;21292;52.416;13.046;2023-12-22T05:47:39;8.02;;;1.35;;
35114;SDS011;21292;52.416;13.046;2023-12-22T05:50:08;6.55;;;1.05;;
35114;SDS011;21292;52.416;13.046;2023-12-22T05:52:39;4.68;;;1.13;;
35114;SDS011;21292;52.416;13.046;2023-12-22T05:55:07;7.07;;;1.27;;
35114;SDS011;21292;52.416;13.046;2023-12-22T05:57:38;4.82;;;1.10;;
35114;SDS011;21292;52.416;13.046;2023-12-22T06:00:06;10.10;;;1.13;;
35114;SDS011;21292;52.416;13.046;2023-12-22T06:02:37;4.20;;;0.73;;
35114;SDS011;21292;52.416;13.046;2023-12-22T06:05:06;3.85;;;1.13;;
35114;SDS011;21292;52.416;13.046;2023-12-22T06:07:35;3.00;;;0.80;;
35114;SDS011;21292;52.416;13.046;2023-12-22T06:10:04;3.13;;;0.70;;
35114;SDS011;21292;52.416;13.046;2023-12-22T06:12:34;1.27;;;0.73;;
35114;SDS011;21292;52.416;13.046;2023-12-22T06:15:04;0.50;;;0.50;;
35114;SDS011;21292;52.416;13.046;2023-12-22T06:17:33;0.57;;;0.57;;
35114;SDS011;21292;52.416;13.046;2023-12-22T06:20:02;3.30;;;0.73;;
35114;SDS011;21292;52.416;13.046;2023-12-22T06:22:33;1.20;;;0.57;;
35114;SDS011;21292;52.416;13.046;2023-12-22T06:25:02;3.83;;;0.70;;
35114;SDS011;21292;52.416;13.046;2023-12-22T06:27:34;1.85;;;0.80;;
35114;SDS011;21292;52.416;13.046;2023-12-22T06:30:10;1.45;;;0.95;;
35114;SDS011;21292;52.416;13.046;2023-12-22T06:32:39;2.60;;;1.08;;
35114;SDS011;21292;52.416;13.046;2023-12-22T06:35:08;6.38;;;1.08;;
35114;SDS011;21292;52.416;13.046;2023-12-22T06:37:43;5.10;;;1.48;;
35114;SDS011;21292;52.416;13.046;2023-12-22T06:40:11;8.85;;;1.90;;
35114;SDS011;21292;52.416;13.046;2023-12-22T06:42:42;7.00;;;1.23;;
35114;SDS011;21292;52.416;13.046;2023-12-22T06:45:12;4.72;;;1.33;;
35114;SDS011;21292;52.416;13.046;2023-12-22T06:47:41;2.30;;;0.85;;
35114;SDS011;21292;52.416;13.046;2023-12-22T06:50:10;6.43;;;1.15;;
35114;SDS011;21292;52.416;13.046;2023-12-22T06:52:39;3.42;;;1.40;;
35114;SDS011;21292;52.416;13.046;2023-12-22T06:55:08;1.77;;;0.90;;
35114;SDS011;21292;52.416;13.046;2023-12-22T06:57:38;5.05;;;1.27;;
35114;SDS011;21292;52.416;13.046;2023-12-22T07:00:09;6.65;;;1.70;;
35114;SDS011;21292;52.416;13.046;2023-12-22T07:02:40;6.65;;;1.35;;
35114;SDS011;21292;52.416;13.046;2023-12-22T07:07:58;21.05;;;3.13;;
35114;SDS011;21292;52.416;13.046;2023-12-22T07:10:28;7.80;;;2.45;;
35114;SDS011;21292;52.416;13.046;2023-12-22T07:12:56;9.82;;;2.30;;
35114;SDS011;21292;52.416;13.046;2023-12-22T07:15:25;9.43;;;2.60;;
35114;SDS011;21292;52.416;13.046;2023-12-22T07:17:56;4.97;;;1.90;;
35114;SDS011;21292;52.416;13.046;2023-12-22T07:20:25;10.80;;;1.95;;
35114;SDS011;21292;52.416;13.046;2023-12-22T07:22:53;13.77;;;2.40;;
35114;SDS011;21292;52.416;13.046;2023-12-22T07:25:23;5.07;;;1.58;;
35114;SDS011;21292;52.416;13.046;2023-12-22T07:27:52;6.65;;;1.52;;
35114;SDS011;21292;52.416;13.046;2023-12-22T07:30:22;5.90;;;1.60;;
35114;SDS011;21292;52.416;13.046;2023-12-22T07:32:52;3.92;;;1.38;;
35114;SDS011;21292;52.416;13.046;2023-12-22T07:35:23;6.68;;;1.38;;
35114;SDS011;21292;52.416;13.046;2023-12-22T07:37:51;5.95;;;1.52;;
35114;SDS011;21292;52.416;13.046;2023-12-22T07:40:22;5.07;;;1.50;;
35114;SDS011;21292;52.416;13.046;2023-12-22T07:42:50;6.65;;;1.08;;
35114;SDS011;21292;52.416;13.046;2023-12-22T07:45:20;12.70;;;1.98;;
35114;SDS011;21292;52.416;13.046;2023-12-22T07:47:49;5.60;;;1.05;;
35114;SDS011;21292;52.416;13.046;2023-12-22T07:50:18;6.90;;;1.48;;
35114;SDS011;21292;52.416;13.046;2023-12-22T07:55:20;8.13;;;1.48;;
35114;SDS011;21292;52.416;13.046;2023-12-22T07:57:49;4.85;;;1.60;;
35114;SDS011;21292;52.416;13.046;2023-12-22T08:00:17;4.82;;;1.10;;
35114;SDS011;21292;52.416;13.046;2023-12-22T08:02:46;2.17;;;1.10;;
35114;SDS011;21292;52.416;13.046;2023-12-22T08:05:15;4.63;;;1.38;;
35114;SDS011;21292;52.416;13.046;2023-12-22T08:07:43;2.67;;;0.80;;
35114;SDS011;21292;52.416;13.046;2023-12-22T08:10:15;2.80;;;0.90;;
35114;SDS011;21292;52.416;13.046;2023-12-22T08:12:44;5.53;;;1.02;;
35114;SDS011;21292;52.416;13.046;2023-12-22T08:15:12;5.28;;;1.10;;
35114;SDS011;21292;52.416;13.046;2023-12-22T08:17:55;5.50;;;1.60;;
35114;SDS011;21292;52.416;13.046;2023-12-22T08:20:25;11.60;;;1.17;;
35114;SDS011;21292;52.416;13.046;2023-12-22T08:23:02;4.88;;;1.10;;
35114;SDS011;21292;52.416;13.046;2023-12-22T08:25:40;5.35;;;1.05;;
35114;SDS011;21292;52.416;13.046;2023-12-22T08:28:11;6.85;;;1.00;;
35114;SDS011;21292;52.416;13.046;2023-12-22T08:30:40;4.05;;;1.17;;
35114;SDS011;21292;52.416;13.046;2023-12-22T08:33:09;8.35;;;1.50;;
35114;SDS011;21292;52.416;13.046;2023-12-22T08:35:40;6.75;;;1.08;;
35114;SDS011;21292;52.416;13.046;2023-12-22T08:38:09;5.47;;;1.30;;
35114;SDS011;21292;52.416;13.046;2023-12-22T08:40:42;2.97;;;1.00;;
35114;SDS011;21292;52.416;13.046;2023-12-22T08:43:11;5.72;;;1.48;;
35114;SDS011;21292;52.416;13.046;2023-12-22T08:45:40;6.85;;;1.15;;
35114;SDS011;21292;52.416;13.046;2023-12-22T08:48:08;12.50;;;1.30;;
35114;SDS011;21292;52.416;13.046;2023-12-22T08:50:37;8.10;;;1.75;;
35114;SDS011;21292;52.416;13.046;2023-12-22T08:53:08;9.05;;;1.58;;
35114;SDS011;21292;52.416;13.046;2023-12-22T08:55:37;8.57;;;2.40;;
35114;SDS011;21292;52.416;13.046;2023-12-22T08:58:07;12.52;;;2.20;;
35114;SDS011;21292;52.416;13.046;2023-12-22T09:00:38;5.05;;;1.50;;
35114;SDS011;21292;52.416;13.046;2023-12-22T09:03:06;11.60;;;1.85;;
35114;SDS011;21292;52.416;13.046;2023-12-22T09:05:34;16.33;;;2.10;;
35114;SDS011;21292;52.416;13.046;2023-12-22T09:08:03;7.03;;;1.88;;
35114;SDS011;21292;52.416;13.046;2023-12-22T09:10:33;9.43;;;2.10;;
35114;SDS011;21292;52.416;13.046;2023-12-22T09:13:03;12.48;;;2.72;;
35114;SDS011;21292;52.416;13.046;2023-12-22T09:15:34;13.85;;;1.77;;
35114;SDS011;21292;52.416;13.046;2023-12-22T09:18:04;11.13;;;1.90;;
35114;SDS011;21292;52.416;13.046;2023-12-22T09:20:32;10.25;;;2.17;;
35114;SDS011;21292;52.416;13.046;2023-12-22T09:23:01;7.35;;;2.15;;
35114;SDS011;21292;52.416;13.046;2023-12-22T09:25:34;13.88;;;2.17;;
35114;SDS011;21292;52.416;13.046;2023-12-22T09:28:03;14.80;;;1.42;;
35114;SDS011;21292;52.416;13.046;2023-12-22T09:30:35;16.85;;;2.38;;
35114;SDS011;21292;52.416;13.046;2023-12-22T09:33:04;12.45;;;1.90;;
35114;SDS011;21292;52.416;13.046;2023-12-22T09:35:33;12.95;;;2.35;;
35114;SDS011;21292;52.416;13.046;2023-12-22T09:38:03;9.77;;;2.13;;
35114;SDS011;21292;52.416;13.046;2023-12-22T09:40:31;9.07;;;2.10;;
35114;SDS011;21292;52.416;13.046;2023-12-22T09:43:02;8.95;;;2.67;;
35114;SDS011;21292;52.416;13.046;2023-12-22T09:45:32;5.85;;;1.80;;
35114;SDS011;21292;52.416;13.046;2023-12-22T09:48:05;15.27;;;2.50;;
35114;SDS011;21292;52.416;13.046;2023-12-22T09:50:36;14.43;;;1.92;;
35114;SDS011;21292;52.416;13.046;2023-12-22T09:53:06;19.98;;;2.42;;
35114;SDS011;21292;52.416;13.046;2023-12-22T09:55:36;11.23;;;2.13;;
35114;SDS011;21292;52.416;13.046;2023-12-22T09:58:07;13.02;;;2.28;;
35114;SDS011;21292;52.416;13.046;2023-12-22T10:00:37;12.70;;;2.05;;
35114;SDS011;21292;52.416;13.046;2023-12-22T10:03:07;15.68;;;2.15;;
35114;SDS011;21292;52.416;13.046;2023-12-22T10:05:38;12.82;;;2.42;;
35114;SDS011;21292;52.416;13.046;2023-12-22T10:08:08;13.55;;;2.40;;
35114;SDS011;21292;52.416;13.046;2023-12-22T10:10:39;11.85;;;2.38;;
35114;SDS011;21292;52.416;13.046;2023-12-22T10:13:08;19.30;;;3.28;;
35114;SDS011;21292;52.416;13.046;2023-12-22T10:15:39;16.33;;;2.97;;
35114;SDS011;21292;52.416;13.046;2023-12-22T10:18:11;11.05;;;2.30;;
35114;SDS011;21292;52.416;13.046;2023-12-22T10:20:40;7.88;;;2.33;;
35114;SDS011;21292;52.416;13.046;2023-12-22T10:23:08;14.50;;;2.70;;
35114;SDS011;21292;52.416;13.046;2023-12-22T10:25:40;7.20;;;1.97;;
35114;SDS011;21292;52.416;13.046;2023-12-22T10:28:10;8.93;;;2.17;;
35114;SDS011;21292;52.416;13.046;2023-12-22T10:30:40;11.63;;;2.28;;
35114;SDS011;21292;52.416;13.046;2023-12-22T10:33:11;8.73;;;1.50;;
35114;SDS011;21292;52.416;13.046;2023-12-22T10:35:41;10.30;;;1.90;;
35114;SDS011;21292;52.416;13.046;2023-12-22T10:38:10;8.27;;;1.42;;
35114;SDS011;21292;52.416;13.046;2023-12-22T10:40:38;4.22;;;0.90;;
35114;SDS011;21292;52.416;13.046;2023-12-22T10:43:07;7.38;;;1.70;;
35114;SDS011;21292;52.416;13.046;2023-12-22T10:45:36;6.68;;;1.55;;
35114;SDS011;21292;52.416;13.046;2023-12-22T10:48:06;8.18;;;1.50;;
35114;SDS011;21292;52.416;13.046;2023-12-22T10:50:37;11.77;;;1.52;;
35114;SDS011;21292;52.416;13.046;2023-12-22T10:53:07;9.85;;;1.70;;
35114;SDS011;21292;52.416;13.046;2023-12-22T10:55:42;9.13;;;1.60;;
35114;SDS011;21292;52.416;13.046;2023-12-22T10:58:11;8.40;;;1.95;;
35114;SDS011;21292;52.416;13.046;2023-12-22T11:00:40;14.65;;;2.00;;
35114;SDS011;21292;52.416;13.046;2023-12-22T11:03:09;9.63;;;2.35;;
35114;SDS011;21292;52.416;13.046;2023-12-22T11:05:42;9.90;;;2.55;;
35114;SDS011;21292;52.416;13.046;2023-12-22T11:08:15;25.08;;;2.85;;
35114;SDS011;21292;52.416;13.046;2023-12-22T11:10:51;16.77;;;2.17;;
35114;SDS011;21292;52.416;13.046;2023-12-22T11:13:24;11.80;;;1.92;;
35114;SDS011;21292;52.416;13.046;2023-12-22T11:15:56;5.90;;;1.60;;
35114;SDS011;21292;52.416;13.046;2023-12-22T11:18:25;8.57;;;1.77;;
35114;SDS011;21292;52.416;13.046;2023-12-22T11:20:56;4.22;;;1.17;;
35114;SDS011;21292;52.416;13.046;2023-12-22T11:23:26;4.63;;;1.65;;
35114;SDS011;21292;52.416;13.046;2023-12-22T11:25:56;11.05;;;1.60;;
35114;SDS011;21292;52.416;13.046;2023-12-22T11:28:30;17.35;;;2.42;;
35114;SDS011;21292;52.416;13.046;2023-12-22T11:30:58;14.60;;;2.30;;
35114;SDS011;21292;52.416;13.046;2023-12-22T11:33:28;12.27;;;2.90;;
35114;SDS011;21292;52.416;13.046;2023-12-22T11:35:58;9.63;;;2.13;;
35114;SDS011;21292;52.416;13.046;2023-12-22T11:38:27;6.65;;;1.90;;
35114;SDS011;21292;52.416;13.046;2023-12-22T11:40:58;8.55;;;2.40;;
35114;SDS011;21292;52.416;13.046;2023-12-22T11:43:28;8.95;;;1.92;;
35114;SDS011;21292;52.416;13.046;2023-12-22T11:46:01;8.45;;;1.70;;
35114;SDS011;21292;52.416;13.046;2023-12-22T11:48:31;11.88;;;1.67;;
35114;SDS011;21292;52.416;13.046;2023-12-22T11:51:00;9.55;;;1.80;;
35114;SDS011;21292;52.416;13.046;2023-12-22T11:53:30;8.50;;;1.35;;
35114;SDS011;21292;52.416;13.046;2023-12-22T11:56:00;10.85;;;1.52;;
35114;SDS011;21292;52.416;13.046;2023-12-22T11:58:35;18.17;;;2.15;;
35114;SDS011;21292;52.416;13.046;2023-12-22T12:01:05;12.57;;;2.17;;
35114;SDS011;21292;52.416;13.046;2023-12-22T12:03:41;12.50;;;1.70;;
35114;SDS011;21292;52.416;13.046;2023-12-22T12:06:31;11.13;;;2.30;;
35114;SDS011;21292;52.416;13.046;2023-12-22T12:09:03;7.85;;;1.67;;
35114;SDS011;21292;52.416;13.046;2023-12-22T12:14:41;5.57;;;2.08;;
35114;SDS011;21292;52.416;13.046;2023-12-22T12:17:10;8.82;;;1.80;;
35114;SDS011;21292;52.416;13.046;2023-12-22T12:19:39;16.77;;;2.55;;
35114;SDS011;21292;52.416;13.046;2023-12-22T12:22:12;14.48;;;2.30;;
35114;SDS011;21292;52.416;13.046;2023-12-22T12:24:42;13.83;;;2.07;;
35114;SDS011;21292;52.416;13.046;2023-12-22T12:27:11;7.05;;;2.03;;
35114;SDS011;21292;52.416;13.046;2023-12-22T12:29:50;11.55;;;2.13;;
35114;SDS011;21292;52.416;13.046;2023-12-22T12:32:23;7.97;;;2.33;;
35114;SDS011;21292;52.416;13.046;2023-12-22T12:34:52;17.35;;;2.40;;
35114;SDS011;21292;52.416;13.046;2023-12-22T12:37:26;14.27;;;1.95;;
35114;SDS011;21292;52.416;13.046;2023-12-22T12:39:57;18.15;;;2.45;;
35114;SDS011;21292;52.416;13.046;2023-12-22T12:42:37;16.83;;;2.67;;
35114;SDS011;21292;52.416;13.046;2023-12-22T12:45:40;13.10;;;2.65;;
35114;SDS011;21292;52.416;13.046;2023-12-22T12:48:10;14.98;;;2.85;;
35114;SDS011;21292;52.416;13.046;2023-12-22T12:50:39;16.17;;;2.90;;
35114;SDS011;21292;52.416;13.046;2023-12-22T12:53:11;10.90;;;2.50;;
35114;SDS011;21292;52.416;13.046;2023-12-22T12:55:40;11.93;;;2.63;;
35114;SDS011;21292;52.416;13.046;2023-12-22T12:58:08;16.02;;;3.95;;
35114;SDS011;21292;52.416;13.046;2023-12-22T13:00:39;7.15;;;2.33;;
35114;SDS011;21292;52.416;13.046;2023-12-22T13:03:07;13.95;;;3.03;;
35114;SDS011;21292;52.416;13.046;2023-12-22T13:05:38;14.90;;;1.98;;
35114;SDS011;21292;52.416;13.046;2023-12-22T13:08:15;14.40;;;2.25;;
35114;SDS011;21292;52.416;13.046;2023-12-22T13:10:45;16.35;;;3.00;;
35114;SDS011;21292;52.416;13.046;2023-12-22T13:13:14;18.67;;;2.25;;
35114;SDS011;21292;52.416;13.046;2023-12-22T13:15:46;16.02;;;2.60;;
35114;SDS011;21292;52.416;13.046;2023-12-22T13:18:16;12.00;;;2.90;;
35114;SDS011;21292;52.416;13.046;2023-12-22T13:20:47;12.48;;;2.70;;
35114;SDS011;21292;52.416;13.046;2023-12-22T13:23:19;16.48;;;3.05;;
35114;SDS011;21292;52.416;13.046;2023-12-22T13:28:24;11.25;;;2.17;;
35114;SDS011;21292;52.416;13.046;2023-12-22T13:30:54;13.20;;;1.95;;
35114;SDS011;21292;52.416;13.046;2023-12-22T13:33:35;9.02;;;2.13;;
35114;SDS011;21292;52.416;13.046;2023-12-22T13:36:04;12.70;;;3.70;;
35114;SDS011;21292;52.416;13.046;2023-12-22T13:38:35;5.22;;;1.60;;
35114;SDS011;21292;52.416;13.046;2023-12-22T13:41:06;10.45;;;1.38;;
35114;SDS011;21292;52.416;13.046;2023-12-22T13:43:36;3.65;;;1.75;;
35114;SDS011;21292;52.416;13.046;2023-12-22T13:46:05;3.92;;;1.60;;
35114;SDS011;21292;52.416;13.046;2023-12-22T13:48:34;6.28;;;1.70;;
35114;SDS011;21292;52.416;13.046;2023-12-22T13:51:02;7.38;;;1.88;;
35114;SDS011;21292;52.416;13.046;2023-12-22T13:53:32;6.00;;;1.48;;
35114;SDS011;21292;52.416;13.046;2023-12-22T13:56:02;11.00;;;1.40;;
35114;SDS011;21292;52.416;13.046;2023-12-22T13:58:33;6.97;;;1.25;;
35114;SDS011;21292;52.416;13.046;2023-12-22T14:01:12;3.80;;;1.05;;
35114;SDS011;21292;52.416;13.046;2023-12-22T14:03:42;6.90;;;0.90;;
35114;SDS011;21292;52.416;13.046;2023-12-22T14:06:13;2.95;;;1.10;;
35114;SDS011;21292;52.416;13.046;2023-12-22T14:08:44;10.10;;;1.20;;
35114;SDS011;21292;52.416;13.046;2023-12-22T14:11:13;2.97;;;1.15;;
35114;SDS011;21292;52.416;13.046;2023-12-22T14:13:43;4.60;;;1.33;;
35114;SDS011;21292;52.416;13.046;2023-12-22T14:16:12;6.95;;;1.15;;
35114;SDS011;21292;52.416;13.046;2023-12-22T14:18:42;6.38;;;1.23;;
35114;SDS011;21292;52.416;13.046;2023-12-22T14:21:11;5.38;;;1.48;;
35114;SDS011;21292;52.416;13.046;2023-12-22T14:23:40;7.05;;;0.98;;
35114;SDS011;21292;52.416;13.046;2023-12-22T14:26:08;2.80;;;1.00;;
35114;SDS011;21292;52.416;13.046;2023-12-22T14:28:46;7.63;;;1.27;;
35114;SDS011;21292;52.416;13.046;2023-12-22T14:31:19;4.38;;;1.10;;
35114;SDS011;21292;52.416;13.046;2023-12-22T14:33:48;6.53;;;1.38;;
35114;SDS011;21292;52.416;13.046;2023-12-22T14:36:17;5.63;;;1.63;;
35114;SDS011;21292;52.416;13.046;2023-12-22T14:38:46;4.57;;;1.35;;
35114;SDS011;21292;52.416;13.046;2023-12-22T14:41:15;8.52;;;2.35;;
35114;SDS011;21292;52.416;13.046;2023-12-22T14:43:47;5.63;;;1.20;;
35114;SDS011;21292;52.416;13.046;2023-12-22T14:46:16;4.97;;;1.40;;
35114;SDS011;21292;52.416;13.046;2023-12-22T14:48:44;4.72;;;1.20;;
35114;SDS011;21292;52.416;13.046;2023-12-22T14:51:13;8.93;;;1.52;;
35114;SDS011;21292;52.416;13.046;2023-12-22T14:53:44;7.97;;;1.50;;
35114;SDS011;21292;52.416;13.046;2023-12-22T14:56:14;7.78;;;1.35;;